createdAt,value
2023-05-21T00:00:02.334Z,101446.16
2023-05-21T00:02:40.111Z,101441.00
2023-05-21T00:05:14.336Z,101440.53
2023-05-21T00:07:42.373Z,101437.47
2023-05-21T00:10:11.791Z,101443.06
2023-05-21T00:12:39.433Z,101434.59
2023-05-21T00:15:07.853Z,101435.19
2023-05-21T00:17:36.962Z,101437.59
2023-05-21T00:20:08.769Z,101434.97
2023-05-21T00:22:37.010Z,101429.00
2023-05-21T00:25:04.966Z,101430.56
2023-05-21T00:27:33.971Z,101433.22
2023-05-21T00:30:01.644Z,101420.41
2023-05-21T00:32:30.567Z,101424.59
2023-05-21T00:34:58.296Z,101425.25
2023-05-21T00:37:25.942Z,101411.72
2023-05-21T00:39:53.633Z,101421.78
2023-05-21T00:42:21.389Z,101412.06
2023-05-21T00:44:50.453Z,101411.88
2023-05-21T00:47:18.555Z,101414.53
2023-05-21T00:49:47.013Z,101418.47
2023-05-21T00:52:15.053Z,101420.84
2023-05-21T00:54:42.650Z,101411.16
2023-05-21T00:57:10.325Z,101413.16
2023-05-21T00:59:38.012Z,101412.28
2023-05-21T01:02:09.439Z,101401.41
2023-05-21T01:04:37.142Z,101399.88
2023-05-21T01:07:06.293Z,101393.72
2023-05-21T01:09:33.964Z,101396.91
2023-05-21T01:12:01.675Z,101402.63
2023-05-21T01:14:29.305Z,101396.59
2023-05-21T01:16:56.939Z,101398.00
2023-05-21T01:19:26.211Z,101399.19
2023-05-21T01:21:56.233Z,101389.06
2023-05-21T01:24:25.432Z,101388.78
2023-05-21T01:26:53.039Z,101388.41
2023-05-21T01:29:20.860Z,101393.47
2023-05-21T01:31:52.310Z,101386.63
2023-05-21T01:34:20.630Z,101389.38
2023-05-21T01:36:48.973Z,101389.88
2023-05-21T01:39:17.121Z,101390.34
2023-05-21T01:41:46.361Z,101391.94
2023-05-21T01:44:14.007Z,101400.00
2023-05-21T01:46:41.690Z,101389.25
2023-05-21T01:49:09.395Z,101387.84
2023-05-21T01:51:37.102Z,101382.28
2023-05-21T01:54:04.863Z,101386.06
2023-05-21T01:56:33.962Z,101382.81
2023-05-21T01:59:03.262Z,101376.38
2023-05-21T02:01:31.214Z,101372.28
2023-05-21T02:03:59.017Z,101379.97
2023-05-21T02:06:26.730Z,101378.69
2023-05-21T02:08:55.528Z,101374.47
2023-05-21T02:11:23.374Z,101375.84
2023-05-21T02:13:51.026Z,101370.28
2023-05-21T02:16:22.427Z,101372.53
2023-05-21T02:18:53.631Z,101368.31
2023-05-21T02:21:21.634Z,101363.41
2023-05-21T02:23:49.346Z,101368.53
2023-05-21T02:26:18.008Z,101361.06
2023-05-21T02:28:45.655Z,101371.88
2023-05-21T02:31:13.497Z,101368.91
2023-05-21T02:33:42.983Z,101367.00
2023-05-21T02:36:13.047Z,101372.97
2023-05-21T02:38:43.800Z,101358.34
2023-05-21T02:41:11.999Z,101357.91
2023-05-21T02:43:40.235Z,101356.00
2023-05-21T02:46:08.327Z,101365.94
2023-05-21T02:48:36.581Z,101354.59
2023-05-21T02:51:06.996Z,101360.06
2023-05-21T02:53:34.763Z,101364.09
2023-05-21T02:56:03.228Z,101361.84
2023-05-21T02:58:30.883Z,101362.06
2023-05-21T03:00:58.667Z,101352.09
2023-05-21T03:03:26.611Z,101353.66
2023-05-21T03:05:54.317Z,101352.16
2023-05-21T03:08:23.319Z,101347.50
2023-05-21T03:10:50.963Z,101352.25
2023-05-21T03:13:18.696Z,101351.81
2023-05-21T03:15:46.555Z,101344.59
2023-05-21T03:18:14.895Z,101346.78
2023-05-21T03:20:44.305Z,101342.75
2023-05-21T03:23:16.250Z,101351.19
2023-05-21T03:25:46.924Z,101351.19
2023-05-21T03:28:15.524Z,101350.03
2023-05-21T03:30:47.295Z,101353.88
2023-05-21T03:33:35.200Z,101344.63
2023-05-21T03:36:12.114Z,101351.88
2023-05-21T03:38:39.764Z,101355.25
2023-05-21T03:41:09.395Z,101352.44
2023-05-21T03:43:37.732Z,101352.00
2023-05-21T03:46:05.564Z,101356.09
2023-05-21T03:48:51.848Z,101363.53
2023-05-21T03:51:22.977Z,101363.72
2023-05-21T03:53:50.853Z,101357.06
2023-05-21T03:56:20.163Z,101359.63
2023-05-21T03:58:48.561Z,101353.03
2023-05-21T04:01:17.716Z,101352.56
2023-05-21T04:03:45.848Z,101359.16
2023-05-21T04:06:15.546Z,101358.22
2023-05-21T04:08:44.483Z,101357.41
2023-05-21T04:11:12.164Z,101358.63
2023-05-21T04:13:41.198Z,101353.94
2023-05-21T04:16:09.847Z,101361.09
2023-05-21T04:18:37.569Z,101363.69
2023-05-21T04:21:06.092Z,101364.50
2023-05-21T04:23:33.773Z,101356.56
2023-05-21T04:26:03.050Z,101370.44
2023-05-21T04:28:30.801Z,101364.44
2023-05-21T04:31:00.005Z,101362.47
2023-05-21T04:33:28.616Z,101356.22
2023-05-21T04:35:56.266Z,101360.88
2023-05-21T04:38:26.111Z,101357.97
2023-05-21T04:40:53.969Z,101364.63
2023-05-21T04:43:25.569Z,101367.09
2023-05-21T04:45:54.965Z,101367.34
2023-05-21T04:48:24.912Z,101370.06
2023-05-21T04:50:53.518Z,101366.47
2023-05-21T04:53:21.862Z,101375.44
2023-05-21T04:55:49.645Z,101367.91
2023-05-21T04:58:18.359Z,101370.72
2023-05-21T05:00:47.365Z,101373.16
2023-05-21T05:03:16.375Z,101375.69
2023-05-21T05:05:46.414Z,101372.06
2023-05-21T05:08:15.964Z,101378.59
2023-05-21T05:10:44.136Z,101379.72
2023-05-21T05:13:12.582Z,101371.19
2023-05-21T05:15:40.312Z,101382.84
2023-05-21T05:18:08.521Z,101373.31
2023-05-21T05:20:36.393Z,101375.00
2023-05-21T05:23:05.537Z,101366.03
2023-05-21T05:25:33.564Z,101370.84
2023-05-21T05:28:01.468Z,101371.06
2023-05-21T05:30:29.230Z,101372.59
2023-05-21T05:33:03.504Z,101362.72
2023-05-21T05:35:31.670Z,101369.19
2023-05-21T05:37:59.333Z,101368.34
2023-05-21T05:40:28.610Z,101378.69
2023-05-21T05:42:56.254Z,101368.41
2023-05-21T05:45:26.593Z,101378.81
2023-05-21T05:47:54.495Z,101363.00
2023-05-21T05:50:22.370Z,101374.78
2023-05-21T05:52:51.263Z,101370.72
2023-05-21T05:55:19.017Z,101372.25
2023-05-21T05:57:48.063Z,101369.88
2023-05-21T06:00:18.442Z,101372.63
2023-05-21T06:02:49.265Z,101370.34
2023-05-21T06:05:17.240Z,101368.53
2023-05-21T06:07:45.033Z,101366.38
2023-05-21T06:10:12.732Z,101373.88
2023-05-21T06:12:40.465Z,101372.28
2023-05-21T06:15:10.359Z,101364.81
2023-05-21T06:17:38.190Z,101368.78
2023-05-21T06:20:06.553Z,101368.16
2023-05-21T06:22:34.292Z,101358.63
2023-05-21T06:25:01.985Z,101357.00
2023-05-21T06:27:30.582Z,101362.16
2023-05-21T06:29:59.399Z,101361.44
2023-05-21T06:32:28.506Z,101359.13
2023-05-21T06:34:56.226Z,101364.06
2023-05-21T06:37:25.949Z,101363.38
2023-05-21T06:39:54.366Z,101362.50
2023-05-21T06:42:22.737Z,101345.59
2023-05-21T06:45:10.370Z,101343.13
2023-05-21T06:47:41.297Z,101343.94
2023-05-21T06:50:09.461Z,101346.88
2023-05-21T06:52:37.258Z,101359.78
2023-05-21T06:55:05.348Z,101349.59
2023-05-21T06:57:52.956Z,101355.13
2023-05-21T07:00:20.688Z,101351.38
2023-05-21T07:02:50.697Z,101358.88
2023-05-21T07:05:18.527Z,101356.78
2023-05-21T07:07:46.252Z,101356.22
2023-05-21T07:10:14.266Z,101363.44
2023-05-21T07:12:41.986Z,101354.97
2023-05-21T07:15:10.517Z,101359.31
2023-05-21T07:17:38.539Z,101351.28
2023-05-21T07:20:09.828Z,101356.19
2023-05-21T07:22:39.825Z,101354.75
2023-05-21T07:25:09.548Z,101350.91
2023-05-21T07:27:37.224Z,101353.16
2023-05-21T07:30:05.242Z,101353.78
2023-05-21T07:32:33.405Z,101341.81
2023-05-21T07:35:02.913Z,101348.69
2023-05-21T07:37:32.710Z,101339.50
2023-05-21T07:40:00.504Z,101341.13
2023-05-21T07:42:28.507Z,101346.63
2023-05-21T07:44:57.838Z,101348.72
2023-05-21T07:47:27.249Z,101349.09
2023-05-21T07:49:55.244Z,101355.66
2023-05-21T07:52:23.055Z,101340.75
2023-05-21T07:54:52.319Z,101336.25
2023-05-21T07:57:23.289Z,101335.88
2023-05-21T08:00:01.541Z,101335.69
2023-05-21T08:02:32.223Z,101331.47
2023-05-21T08:05:01.548Z,101331.03
2023-05-21T08:07:29.342Z,101331.94
2023-05-21T08:09:58.479Z,101333.06
2023-05-21T08:12:26.477Z,101326.69
2023-05-21T08:14:54.320Z,101328.34
2023-05-21T08:17:22.679Z,101327.59
2023-05-21T08:19:50.642Z,101328.91
2023-05-21T08:22:18.487Z,101329.31
2023-05-21T08:24:46.922Z,101330.56
2023-05-21T08:27:16.436Z,101324.38
2023-05-21T08:29:44.324Z,101323.19
2023-05-21T08:32:12.097Z,101330.28
2023-05-21T08:34:39.966Z,101331.53
2023-05-21T08:37:27.917Z,101329.38
2023-05-21T08:40:31.160Z,101325.94
2023-05-21T08:43:00.258Z,101331.13
2023-05-21T08:45:40.567Z,101334.19
2023-05-21T08:48:08.701Z,101321.81
2023-05-21T08:50:37.382Z,101321.59
2023-05-21T08:53:19.888Z,101316.69
2023-05-21T08:55:57.174Z,101323.03
2023-05-21T08:58:30.185Z,101316.53
2023-05-21T09:00:58.955Z,101319.31
2023-05-21T09:03:29.226Z,101322.56
2023-05-21T09:05:56.983Z,101322.94
2023-05-21T09:08:28.486Z,101323.50
2023-05-21T09:11:16.221Z,101334.66
2023-05-21T09:13:51.481Z,101316.66
2023-05-21T09:16:25.867Z,101320.69
2023-05-21T09:18:54.174Z,101318.59
2023-05-21T09:21:28.674Z,101308.31
2023-05-21T09:24:00.681Z,101312.03
2023-05-21T09:26:28.829Z,101312.25
2023-05-21T09:29:01.791Z,101303.03
2023-05-21T09:31:29.692Z,101298.97
2023-05-21T09:34:01.929Z,101308.41
2023-05-21T09:36:34.642Z,101299.50
2023-05-21T09:39:02.513Z,101302.41
2023-05-21T09:41:35.935Z,101296.81
2023-05-21T09:44:06.548Z,101300.00
2023-05-21T09:46:39.357Z,101297.03
2023-05-21T09:49:24.417Z,101299.34
2023-05-21T09:51:54.437Z,101289.63
2023-05-21T09:54:22.274Z,101294.47
2023-05-21T09:56:49.915Z,101294.84
2023-05-21T09:59:18.906Z,101296.50
2023-05-21T10:01:46.767Z,101289.63
2023-05-21T10:04:14.533Z,101283.72
2023-05-21T10:06:43.329Z,101292.28
2023-05-21T10:09:11.652Z,101280.06
2023-05-21T10:11:39.583Z,101285.13
2023-05-21T10:14:07.505Z,101279.25
2023-05-21T10:16:37.155Z,101272.75
2023-05-21T10:19:05.857Z,101267.66
2023-05-21T10:21:34.797Z,101263.59
2023-05-21T10:24:02.444Z,101262.03
2023-05-21T10:26:30.124Z,101261.69
2023-05-21T10:29:00.007Z,101256.13
2023-05-21T10:31:27.833Z,101259.81
2023-05-21T10:33:57.050Z,101250.28
2023-05-21T10:36:25.092Z,101257.66
2023-05-21T10:38:52.782Z,101248.47
2023-05-21T10:41:20.953Z,101244.97
2023-05-21T10:43:49.682Z,101239.00
2023-05-21T10:46:32.215Z,101245.56
2023-05-21T10:49:04.243Z,101241.75
2023-05-21T10:51:36.080Z,101246.88
2023-05-21T10:54:22.184Z,101247.44
2023-05-21T10:56:50.616Z,101241.72
2023-05-21T10:59:22.213Z,101248.03
2023-05-21T11:01:50.386Z,101236.97
2023-05-21T11:04:21.788Z,101240.06
2023-05-21T11:06:49.636Z,101240.53
2023-05-21T11:09:17.446Z,101240.22
2023-05-21T11:11:46.216Z,101234.16
2023-05-21T11:14:35.406Z,101236.75
2023-05-21T11:17:03.813Z,101227.09
2023-05-21T11:19:39.372Z,101246.44
2023-05-21T11:22:10.707Z,101236.03
2023-05-21T11:24:38.750Z,101240.22
2023-05-21T11:27:07.104Z,101231.53
2023-05-21T11:29:41.926Z,101222.34
2023-05-21T11:32:10.358Z,101219.84
2023-05-21T11:34:40.410Z,101211.03
2023-05-21T11:37:40.718Z,101225.16
2023-05-21T11:40:17.704Z,101214.88
2023-05-21T11:42:46.201Z,101222.06
2023-05-21T11:45:13.845Z,101218.44
2023-05-21T11:47:41.593Z,101215.94
2023-05-21T11:50:13.520Z,101212.88
2023-05-21T11:52:41.303Z,101228.47
2023-05-21T11:55:09.460Z,101225.47
2023-05-21T11:57:37.809Z,101217.63
2023-05-21T12:00:13.756Z,101217.75
2023-05-21T12:02:45.151Z,101223.69
2023-05-21T12:05:14.287Z,101210.69
2023-05-21T12:07:42.251Z,101215.84
2023-05-21T12:10:10.267Z,101203.69
2023-05-21T12:12:53.268Z,101206.22
2023-05-21T12:15:22.779Z,101204.78
2023-05-21T12:17:51.028Z,101209.13
2023-05-21T12:20:20.210Z,101205.31
2023-05-21T12:22:49.422Z,101204.50
2023-05-21T12:25:19.811Z,101204.06
2023-05-21T12:27:47.640Z,101202.44
2023-05-21T12:30:15.295Z,101205.53
2023-05-21T12:32:44.377Z,101202.59
2023-05-21T12:35:23.247Z,101197.31
2023-05-21T12:37:51.742Z,101192.59
2023-05-21T12:40:22.343Z,101196.91
2023-05-21T12:42:50.405Z,101191.72
2023-05-21T12:45:18.657Z,101187.56
2023-05-21T12:47:48.870Z,101194.22
2023-05-21T12:50:16.730Z,101204.00
2023-05-21T12:52:45.744Z,101195.25
2023-05-21T12:55:14.013Z,101196.97
2023-05-21T12:57:43.784Z,101198.78
2023-05-21T13:00:11.969Z,101198.19
2023-05-21T13:02:40.232Z,101192.56
2023-05-21T13:05:08.776Z,101194.97
2023-05-21T13:07:37.681Z,101193.38
2023-05-21T13:10:07.523Z,101185.06
2023-05-21T13:12:35.423Z,101182.38
2023-05-21T13:15:03.604Z,101179.75
2023-05-21T13:17:31.567Z,101182.47
2023-05-21T13:20:06.873Z,101195.09
2023-05-21T13:22:35.431Z,101183.38
2023-05-21T13:25:03.154Z,101176.22
2023-05-21T13:27:32.179Z,101188.38
2023-05-21T13:29:59.838Z,101178.06
2023-05-21T13:32:27.560Z,101179.06
2023-05-21T13:34:55.330Z,101175.59
2023-05-21T13:37:22.985Z,101166.03
2023-05-21T13:39:50.594Z,101173.19
2023-05-21T13:42:18.309Z,101170.56
2023-05-21T13:44:47.319Z,101167.81
2023-05-21T13:47:14.975Z,101163.13
2023-05-21T13:49:42.645Z,101159.63
2023-05-21T13:52:10.501Z,101165.06
2023-05-21T13:54:38.111Z,101152.22
2023-05-21T13:57:05.837Z,101154.88
2023-05-21T13:59:33.914Z,101145.25
2023-05-21T14:02:03.093Z,101148.59
2023-05-21T14:04:30.748Z,101154.31
2023-05-21T14:06:58.468Z,101153.03
2023-05-21T14:09:27.232Z,101150.91
2023-05-21T14:11:55.164Z,101156.25
2023-05-21T14:14:22.816Z,101158.25
2023-05-21T14:16:50.728Z,101146.09
2023-05-21T14:19:19.932Z,101145.47
2023-05-21T14:21:47.745Z,101153.41
2023-05-21T14:24:15.423Z,101148.91
2023-05-21T14:26:43.116Z,101156.78
2023-05-21T14:29:10.836Z,101154.50
2023-05-21T14:31:38.814Z,101153.13
2023-05-21T14:34:07.018Z,101157.19
2023-05-21T14:36:36.391Z,101149.06
2023-05-21T14:39:04.312Z,101160.38
2023-05-21T14:41:32.091Z,101160.88
2023-05-21T14:43:59.811Z,101162.75
2023-05-21T14:46:27.660Z,101163.56
2023-05-21T14:48:59.182Z,101161.22
2023-05-21T14:51:27.062Z,101157.41
2023-05-21T14:53:57.569Z,101154.28
2023-05-21T14:56:27.219Z,101156.88
2023-05-21T14:58:54.957Z,101158.22
2023-05-21T15:01:22.714Z,101162.94
2023-05-21T15:03:50.722Z,101148.19
2023-05-21T15:06:18.422Z,101151.53
2023-05-21T15:08:46.082Z,101153.78
2023-05-21T15:11:15.116Z,101146.34
2023-05-21T15:13:42.823Z,101144.38
2023-05-21T15:16:10.495Z,101146.03
2023-05-21T15:18:38.132Z,101147.47
2023-05-21T15:21:06.060Z,101139.66
2023-05-21T15:23:33.780Z,101132.00
2023-05-21T15:26:01.536Z,101135.13
2023-05-21T15:28:30.592Z,101137.03
2023-05-21T15:30:58.247Z,101140.66
2023-05-21T15:33:25.880Z,101137.19
2023-05-21T15:35:53.578Z,101134.91
2023-05-21T15:38:21.238Z,101135.72
2023-05-21T15:40:48.896Z,101134.59
2023-05-21T15:43:16.561Z,101141.13
2023-05-21T15:45:45.624Z,101149.59
2023-05-21T15:48:13.461Z,101140.28
2023-05-21T15:50:41.205Z,101135.56
2023-05-21T15:53:08.900Z,101128.88
2023-05-21T15:55:36.756Z,101133.13
2023-05-21T15:58:04.704Z,101132.72
2023-05-21T16:00:32.429Z,101129.50
2023-05-21T16:03:01.503Z,101128.72
2023-05-21T16:05:29.300Z,101129.56
2023-05-21T16:07:56.919Z,101125.91
2023-05-21T16:10:24.854Z,101126.72
2023-05-21T16:12:52.505Z,101128.25
2023-05-21T16:15:20.191Z,101128.44
2023-05-21T16:17:47.927Z,101119.44
2023-05-21T16:20:18.763Z,101124.75
2023-05-21T16:22:46.499Z,101126.16
2023-05-21T16:25:14.101Z,101118.13
2023-05-21T16:27:41.715Z,101119.00
2023-05-21T16:30:09.804Z,101123.25
2023-05-21T16:32:39.402Z,101118.84
2023-05-21T16:35:07.511Z,101108.34
2023-05-21T16:37:36.629Z,101120.00
2023-05-21T16:40:04.588Z,101113.63
2023-05-21T16:42:32.352Z,101113.50
2023-05-21T16:44:59.986Z,101113.19
2023-05-21T16:47:27.643Z,101114.47
2023-05-21T16:49:55.815Z,101116.53
2023-05-21T16:52:23.888Z,101122.97
2023-05-21T16:54:52.962Z,101112.97
2023-05-21T16:57:20.652Z,101126.47
2023-05-21T16:59:48.335Z,101130.69
2023-05-21T17:02:16.064Z,101116.78
2023-05-21T17:04:43.736Z,101122.91
2023-05-21T17:07:11.399Z,101128.25
2023-05-21T17:09:39.091Z,101135.78
2023-05-21T17:12:08.604Z,101132.13
2023-05-21T17:14:37.232Z,101139.47
2023-05-21T17:17:06.896Z,101130.84
2023-05-21T17:19:34.678Z,101132.59
2023-05-21T17:22:02.422Z,101129.56
2023-05-21T17:24:30.066Z,101130.72
2023-05-21T17:26:57.758Z,101135.31
2023-05-21T17:29:26.900Z,101133.03
2023-05-21T17:31:54.648Z,101141.75
2023-05-21T17:34:24.551Z,101130.59
2023-05-21T17:36:52.341Z,101128.91
2023-05-21T17:39:20.335Z,101129.00
2023-05-21T17:41:48.086Z,101132.44
2023-05-21T17:44:16.876Z,101124.03
2023-05-21T17:46:45.984Z,101134.63
2023-05-21T17:49:13.746Z,101125.16
2023-05-21T17:51:41.389Z,101129.22
2023-05-21T17:54:09.083Z,101130.03
2023-05-21T17:56:39.082Z,101137.25
2023-05-21T17:59:07.445Z,101139.25
2023-05-21T18:01:35.239Z,101138.94
2023-05-21T18:04:04.712Z,101147.88
2023-05-21T18:06:32.732Z,101150.59
2023-05-21T18:09:00.475Z,101146.16
2023-05-21T18:11:28.221Z,101145.03
2023-05-21T18:13:55.861Z,101153.94
2023-05-21T18:16:23.692Z,101153.94
2023-05-21T18:18:51.369Z,101152.84
2023-05-21T18:21:20.412Z,101155.53
2023-05-21T18:23:48.092Z,101159.81
2023-05-21T18:26:15.955Z,101150.28
2023-05-21T18:28:43.563Z,101158.22
2023-05-21T18:31:11.210Z,101153.25
2023-05-21T18:33:39.322Z,101157.63
2023-05-21T18:36:07.318Z,101161.34
2023-05-21T18:38:36.352Z,101163.72
2023-05-21T18:41:05.055Z,101155.22
2023-05-21T18:43:32.709Z,101165.41
2023-05-21T18:46:00.616Z,101166.50
2023-05-21T18:48:28.267Z,101154.13
2023-05-21T18:50:56.712Z,101154.03
2023-05-21T18:53:24.362Z,101159.09
2023-05-21T18:55:53.424Z,101164.06
2023-05-21T18:58:21.083Z,101164.53
2023-05-21T19:00:48.770Z,101161.00
2023-05-21T19:03:16.445Z,101166.00
2023-05-21T19:05:44.145Z,101162.81
2023-05-21T19:08:11.829Z,101173.25
2023-05-21T19:10:39.638Z,101168.91
2023-05-21T19:13:09.033Z,101177.84
2023-05-21T19:15:36.678Z,101176.00
2023-05-21T19:18:04.530Z,101182.00
2023-05-21T19:20:32.188Z,101195.00
2023-05-21T19:22:59.840Z,101190.59
2023-05-21T19:25:27.488Z,101199.97
2023-05-21T19:27:55.148Z,101196.53
2023-05-21T19:30:24.296Z,101209.28
2023-05-21T19:32:52.091Z,101207.44
2023-05-21T19:35:19.799Z,101206.53
2023-05-21T19:37:47.489Z,101204.06
2023-05-21T19:40:17.535Z,101205.56
2023-05-21T19:42:45.302Z,101211.09
2023-05-21T19:45:13.352Z,101207.47
2023-05-21T19:47:42.427Z,101207.47
2023-05-21T19:50:11.274Z,101208.34
2023-05-21T19:52:39.097Z,101205.50
2023-05-21T19:55:08.726Z,101209.81
2023-05-21T19:57:37.028Z,101209.94
2023-05-21T20:00:05.518Z,101203.22
2023-05-21T20:02:40.645Z,101204.88
2023-05-21T20:05:10.481Z,101196.47
2023-05-21T20:07:38.163Z,101202.97
2023-05-21T20:10:06.269Z,101209.63
2023-05-21T20:12:33.952Z,101208.31
2023-05-21T20:15:01.737Z,101209.47
2023-05-21T20:17:30.520Z,101212.00
2023-05-21T20:19:59.316Z,101205.88
2023-05-21T20:22:28.366Z,101203.47
2023-05-21T20:24:56.168Z,101204.50
2023-05-21T20:27:23.833Z,101200.31
2023-05-21T20:29:51.558Z,101211.69
2023-05-21T20:32:19.202Z,101211.25
2023-05-21T20:35:01.639Z,101206.84
2023-05-21T20:37:33.868Z,101208.13
2023-05-21T20:40:01.562Z,101208.63
2023-05-21T20:42:34.791Z,101200.34
2023-05-21T20:45:03.308Z,101214.66
2023-05-21T20:47:31.062Z,101219.47
2023-05-21T20:49:59.809Z,101214.59
2023-05-21T20:52:27.530Z,101212.81
2023-05-21T20:54:59.556Z,101214.63
2023-05-21T20:57:27.469Z,101218.47
2023-05-21T20:59:55.121Z,101217.72
2023-05-21T21:02:22.909Z,101218.28
2023-05-21T21:04:50.980Z,101221.00
2023-05-21T21:07:19.088Z,101213.41
2023-05-21T21:09:46.909Z,101217.97
2023-05-21T21:12:26.137Z,101221.59
2023-05-21T21:14:54.346Z,101227.75
2023-05-21T21:17:22.175Z,101218.16
2023-05-21T21:19:49.894Z,101223.28
2023-05-21T21:22:18.139Z,101217.59
2023-05-21T21:24:45.949Z,101225.34
2023-05-21T21:27:13.642Z,101214.75
2023-05-21T21:29:42.697Z,101226.47
2023-05-21T21:32:10.433Z,101225.69
2023-05-21T21:34:38.080Z,101229.44
2023-05-21T21:37:05.865Z,101235.00
2023-05-21T21:39:33.489Z,101228.47
2023-05-21T21:42:01.156Z,101235.44
2023-05-21T21:44:28.762Z,101231.69
2023-05-21T21:46:57.746Z,101236.00
2023-05-21T21:49:25.638Z,101235.53
2023-05-21T21:51:53.489Z,101227.97
2023-05-21T21:54:21.202Z,101231.59
2023-05-21T21:56:48.843Z,101228.41
2023-05-21T21:59:16.848Z,101230.81
2023-05-21T22:01:44.693Z,101233.25
2023-05-21T22:04:13.797Z,101234.75
2023-05-21T22:06:41.465Z,101232.56
2023-05-21T22:09:09.248Z,101225.25
2023-05-21T22:11:37.192Z,101227.56
2023-05-21T22:14:05.928Z,101229.72
2023-05-21T22:16:34.223Z,101234.69
2023-05-21T22:19:02.293Z,101230.22
2023-05-21T22:21:32.869Z,101224.94
2023-05-21T22:24:00.663Z,101226.72
2023-05-21T22:26:28.328Z,101228.88
2023-05-21T22:28:55.993Z,101228.00
2023-05-21T22:31:23.737Z,101229.81
2023-05-21T22:33:51.479Z,101225.47
2023-05-21T22:36:19.151Z,101228.03
2023-05-21T22:38:48.142Z,101225.66
2023-05-21T22:41:15.786Z,101228.59
2023-05-21T22:43:43.683Z,101230.78
2023-05-21T22:46:11.367Z,101227.16
2023-05-21T22:48:41.835Z,101226.34
2023-05-21T22:51:11.381Z,101228.22
2023-05-21T22:53:39.033Z,101224.66
2023-05-21T22:56:08.241Z,101222.94
2023-05-21T22:58:36.688Z,101232.34
2023-05-21T23:01:04.732Z,101229.97
2023-05-21T23:03:32.357Z,101237.59
2023-05-21T23:06:00.030Z,101235.56
2023-05-21T23:08:27.797Z,101233.38
2023-05-21T23:10:55.415Z,101233.00
2023-05-21T23:13:24.441Z,101233.78
2023-05-21T23:15:52.086Z,101236.66
2023-05-21T23:18:19.797Z,101229.81
2023-05-21T23:20:47.497Z,101226.22
2023-05-21T23:23:15.140Z,101227.28
2023-05-21T23:25:42.774Z,101223.53
2023-05-21T23:28:10.744Z,101221.66
2023-05-21T23:30:40.174Z,101228.50
2023-05-21T23:33:08.034Z,101221.38
2023-05-21T23:35:35.765Z,101221.88
2023-05-21T23:38:03.596Z,101224.19
2023-05-21T23:40:31.256Z,101223.97
2023-05-21T23:42:58.869Z,101222.25
2023-05-21T23:45:26.491Z,101216.19
2023-05-21T23:47:55.578Z,101222.28
2023-05-21T23:50:23.862Z,101221.97
2023-05-21T23:52:51.547Z,101216.50
2023-05-21T23:55:19.209Z,101212.88
2023-05-21T23:57:46.873Z,101208.38
